createdAt,value
2018-06-02T00:00:12.647Z,8.27
2018-06-02T00:02:40.878Z,8.10
2018-06-02T00:05:09.094Z,8.03
2018-06-02T00:07:37.327Z,8.03
2018-06-02T00:10:05.771Z,8.03
2018-06-02T00:12:34.006Z,8.53
2018-06-02T00:15:02.219Z,8.50
2018-06-02T00:17:30.522Z,8.10
2018-06-02T00:19:58.734Z,9.03
2018-06-02T00:22:26.974Z,8.23
2018-06-02T00:24:55.186Z,8.23
2018-06-02T00:27:23.500Z,8.17
2018-06-02T00:29:51.743Z,8.07
2018-06-02T00:32:20.258Z,7.90
2018-06-02T00:34:48.471Z,8.23
2018-06-02T00:37:16.708Z,8.30
2018-06-02T00:39:44.923Z,7.97
2018-06-02T00:42:13.160Z,8.47
2018-06-02T00:44:41.378Z,8.67
2018-06-02T00:47:09.799Z,7.67
2018-06-02T00:49:38.030Z,8.13
2018-06-02T00:52:06.259Z,8.17
2018-06-02T00:54:46.314Z,8.40
2018-06-02T00:57:14.718Z,8.20
2018-06-02T00:59:43.035Z,7.90
2018-06-02T01:02:11.270Z,7.87
2018-06-02T01:04:39.520Z,7.80
2018-06-02T01:07:07.755Z,8.17
2018-06-02T01:09:35.978Z,7.83
2018-06-02T01:12:04.219Z,8.40
2018-06-02T01:14:32.518Z,7.70
2018-06-02T01:17:00.884Z,7.93
2018-06-02T01:19:30.067Z,8.40
2018-06-02T01:21:58.282Z,7.63
2018-06-02T01:24:26.566Z,8.07
2018-06-02T01:26:54.886Z,8.33
2018-06-02T01:29:23.123Z,7.87
2018-06-02T01:31:51.338Z,8.30
2018-06-02T01:34:19.575Z,7.63
2018-06-02T01:36:47.790Z,8.10
2018-06-02T01:39:16.028Z,8.17
2018-06-02T01:41:44.370Z,8.17
2018-06-02T01:44:12.643Z,8.10
2018-06-02T01:46:40.854Z,8.87
2018-06-02T01:49:09.095Z,8.07
2018-06-02T01:51:37.311Z,7.77
2018-06-02T01:54:05.547Z,8.53
2018-06-02T01:56:33.770Z,8.37
2018-06-02T01:59:02.002Z,8.43
2018-06-02T02:01:30.470Z,8.37
2018-06-02T02:03:59.480Z,8.20
2018-06-02T02:06:27.694Z,7.87
2018-06-02T02:08:55.947Z,7.97
2018-06-02T02:11:24.151Z,7.63
2018-06-02T02:13:52.676Z,8.20
2018-06-02T02:16:20.890Z,8.13
2018-06-02T02:18:49.126Z,8.47
2018-06-02T02:21:17.375Z,8.77
2018-06-02T02:23:45.771Z,7.70
2018-06-02T02:26:14.207Z,8.57
2018-06-02T02:28:42.526Z,8.13
2018-06-02T02:31:11.018Z,8.33
2018-06-02T02:33:39.255Z,8.17
2018-06-02T02:36:07.783Z,8.40
2018-06-02T02:38:36.079Z,8.80
2018-06-02T02:41:04.531Z,8.33
2018-06-02T02:43:32.834Z,8.13
2018-06-02T02:46:01.162Z,8.93
2018-06-02T02:48:29.555Z,8.67
2018-06-02T02:50:57.782Z,8.53
2018-06-02T02:53:26.100Z,8.30
2018-06-02T02:55:55.110Z,8.87
2018-06-02T02:58:23.395Z,9.37
2018-06-02T03:00:51.755Z,8.50
2018-06-02T03:03:20.247Z,8.60
2018-06-02T03:05:48.485Z,9.07
2018-06-02T03:08:16.698Z,9.63
2018-06-02T03:10:44.938Z,8.70
2018-06-02T03:13:13.324Z,8.60
2018-06-02T03:15:41.560Z,8.90
2018-06-02T03:18:09.776Z,8.90
2018-06-02T03:20:38.015Z,8.97
2018-06-02T03:23:06.235Z,9.07
2018-06-02T03:25:34.471Z,9.07
2018-06-02T03:28:02.802Z,9.20
2018-06-02T03:30:31.047Z,9.10
2018-06-02T03:32:59.563Z,9.13
2018-06-02T03:35:27.826Z,8.80
2018-06-02T03:37:56.314Z,9.07
2018-06-02T03:40:24.550Z,8.73
2018-06-02T03:42:52.767Z,8.90
2018-06-02T03:45:21.004Z,8.63
2018-06-02T03:47:49.218Z,8.97
2018-06-02T03:50:17.459Z,9.47
2018-06-02T03:52:45.976Z,9.03
2018-06-02T03:55:14.270Z,9.17
2018-06-02T03:57:42.599Z,9.00
2018-06-02T04:00:10.983Z,9.50
2018-06-02T04:02:39.328Z,9.47
2018-06-02T04:05:07.567Z,9.50
2018-06-02T04:07:35.843Z,9.33
2018-06-02T04:10:04.087Z,9.03
2018-06-02T04:12:32.302Z,8.90
2018-06-02T04:15:00.542Z,9.40
2018-06-02T04:17:28.762Z,9.40
2018-06-02T04:19:57.015Z,9.63
2018-06-02T04:22:25.230Z,9.77
2018-06-02T04:24:53.555Z,9.00
2018-06-02T04:27:21.946Z,9.77
2018-06-02T04:29:50.195Z,9.70
2018-06-02T04:32:18.423Z,10.00
2018-06-02T04:34:46.758Z,9.83
2018-06-02T04:37:14.979Z,8.90
2018-06-02T04:39:43.243Z,9.47
2018-06-02T04:42:11.466Z,10.33
2018-06-02T04:44:39.695Z,9.53
2018-06-02T04:47:07.939Z,10.00
2018-06-02T04:49:36.157Z,9.37
2018-06-02T04:52:04.487Z,9.20
2018-06-02T04:54:32.715Z,10.27
2018-06-02T04:57:00.979Z,24.20
2018-06-02T04:59:29.331Z,32.77
2018-06-02T05:01:57.578Z,35.33
2018-06-02T05:04:25.903Z,41.00
2018-06-02T05:06:54.126Z,43.30
2018-06-02T05:09:22.359Z,42.87
2018-06-02T05:11:50.606Z,46.77
2018-06-02T05:14:18.951Z,46.10
2018-06-02T05:16:47.323Z,45.40
2018-06-02T05:19:15.524Z,45.63
2018-06-02T05:21:44.843Z,45.60
2018-06-02T05:24:13.061Z,45.63
2018-06-02T05:26:41.487Z,46.37
2018-06-02T05:29:09.756Z,45.50
2018-06-02T05:31:37.963Z,46.17
2018-06-02T05:34:06.189Z,44.27
2018-06-02T05:36:34.440Z,45.37
2018-06-02T05:39:02.782Z,43.20
2018-06-02T05:41:31.252Z,44.97
2018-06-02T05:43:59.490Z,43.60
2018-06-02T05:46:27.899Z,43.10
2018-06-02T05:49:01.431Z,43.13
2018-06-02T05:51:31.714Z,42.37
2018-06-02T05:53:59.933Z,41.63
2018-06-02T05:56:28.273Z,41.70
2018-06-02T05:58:56.526Z,40.47
2018-06-02T06:01:27.873Z,38.30
2018-06-02T06:04:00.200Z,38.57
2018-06-02T06:06:30.467Z,37.37
2018-06-02T06:08:59.019Z,36.10
2018-06-02T06:11:27.386Z,35.50
2018-06-02T06:13:55.605Z,36.00
2018-06-02T06:16:23.911Z,34.73
2018-06-02T06:18:52.191Z,36.47
2018-06-02T06:21:20.551Z,36.60
2018-06-02T06:23:48.779Z,36.17
2018-06-02T06:26:17.418Z,36.47
2018-06-02T06:28:45.965Z,36.77
2018-06-02T06:31:14.189Z,35.70
2018-06-02T06:33:42.417Z,36.80
2018-06-02T06:36:10.827Z,34.40
2018-06-02T06:38:39.050Z,35.37
2018-06-02T06:41:07.319Z,35.43
2018-06-02T06:43:35.554Z,37.97
2018-06-02T06:46:03.774Z,36.60
2018-06-02T06:48:32.102Z,37.53
2018-06-02T06:51:00.326Z,35.27
2018-06-02T06:53:28.663Z,33.53
2018-06-02T06:55:56.897Z,32.17
2018-06-02T06:58:25.145Z,30.83
2018-06-02T07:00:53.378Z,32.43
2018-06-02T07:03:21.882Z,33.83
2018-06-02T07:05:50.103Z,32.57
2018-06-02T07:08:18.518Z,35.53
2018-06-02T07:10:46.738Z,34.67
2018-06-02T07:13:14.991Z,35.43
2018-06-02T07:15:43.475Z,33.80
2018-06-02T07:18:11.702Z,37.97
2018-06-02T07:20:40.210Z,38.37
2018-06-02T07:23:08.487Z,39.77
2018-06-02T07:25:36.837Z,38.77
2018-06-02T07:28:05.087Z,41.47
2018-06-02T07:30:33.314Z,40.10
2018-06-02T07:33:01.562Z,40.17
2018-06-02T07:35:29.871Z,40.10
2018-06-02T07:37:58.137Z,41.73
2018-06-02T07:40:26.361Z,39.63
2018-06-02T07:42:54.614Z,41.10
2018-06-02T07:45:22.850Z,38.03
2018-06-02T07:47:51.094Z,40.83
2018-06-02T07:50:19.320Z,39.23
2018-06-02T07:52:47.603Z,39.57
2018-06-02T07:55:15.879Z,40.53
2018-06-02T07:57:44.126Z,39.23
2018-06-02T08:00:12.351Z,38.07
2018-06-02T08:02:40.799Z,36.50
2018-06-02T08:05:09.030Z,38.67
2018-06-02T08:07:37.358Z,48.13
2018-06-02T08:10:05.796Z,44.17
2018-06-02T08:12:34.310Z,40.83
2018-06-02T08:15:02.564Z,38.07
2018-06-02T08:17:31.121Z,37.63
2018-06-02T08:19:59.347Z,35.27
2018-06-02T08:22:27.594Z,36.77
2018-06-02T08:24:55.818Z,35.93
2018-06-02T08:27:24.075Z,42.03
2018-06-02T08:29:52.301Z,38.70
2018-06-02T08:32:20.730Z,51.67
2018-06-02T08:34:49.087Z,67.27
2018-06-02T08:37:18.082Z,50.50
2018-06-02T08:39:47.094Z,45.13
2018-06-02T08:42:15.351Z,41.57
2018-06-02T08:44:43.706Z,46.13
2018-06-02T08:47:11.935Z,45.20
2018-06-02T08:49:40.187Z,50.97
2018-06-02T08:52:08.421Z,48.07
2018-06-02T08:54:37.058Z,47.13
2018-06-02T08:57:05.426Z,47.93
2018-06-02T08:59:33.681Z,47.83
2018-06-02T09:02:02.092Z,48.30
2018-06-02T09:04:30.343Z,44.53
2018-06-02T09:06:58.566Z,41.47
2018-06-02T09:09:26.911Z,41.20
2018-06-02T09:11:55.270Z,38.67
2018-06-02T09:14:23.631Z,36.77
2018-06-02T09:16:51.834Z,35.87
2018-06-02T09:19:20.088Z,37.63
2018-06-02T09:21:48.468Z,39.30
2018-06-02T09:24:16.732Z,57.17
2018-06-02T09:26:44.955Z,55.10
2018-06-02T09:29:13.387Z,49.17
2018-06-02T09:31:41.582Z,43.00
2018-06-02T09:34:09.839Z,50.33
2018-06-02T09:36:38.250Z,43.00
2018-06-02T09:39:06.635Z,39.07
2018-06-02T09:41:35.007Z,36.73
2018-06-02T09:44:03.259Z,38.57
2018-06-02T09:46:31.489Z,67.30
2018-06-02T09:48:59.738Z,69.33
2018-06-02T09:51:27.979Z,88.50
2018-06-02T09:53:56.234Z,80.63
2018-06-02T09:56:24.830Z,69.47
2018-06-02T09:58:53.243Z,54.63
2018-06-02T10:01:21.466Z,38.67
2018-06-02T10:03:49.719Z,39.47
2018-06-02T10:06:18.052Z,34.47
2018-06-02T10:08:46.311Z,45.60
2018-06-02T10:11:14.542Z,37.27
2018-06-02T10:13:42.970Z,38.93
2018-06-02T10:16:12.166Z,41.73
2018-06-02T10:18:40.399Z,35.77
2018-06-02T10:21:08.642Z,33.97
2018-06-02T10:23:37.126Z,36.33
2018-06-02T10:26:05.395Z,31.13
2018-06-02T10:28:33.628Z,29.97
2018-06-02T10:31:01.875Z,29.00
2018-06-02T10:33:30.211Z,101.93
2018-06-02T10:35:58.596Z,87.77
2018-06-02T10:38:27.098Z,62.77
2018-06-02T10:40:55.362Z,48.43
2018-06-02T10:43:23.636Z,43.87
2018-06-02T10:45:51.871Z,39.53
2018-06-02T10:48:20.298Z,32.30
2018-06-02T10:50:48.781Z,32.03
2018-06-02T10:53:17.054Z,29.50
2018-06-02T10:55:45.377Z,29.40
2018-06-02T10:58:13.842Z,28.67
2018-06-02T11:00:42.191Z,31.87
2018-06-02T11:03:10.570Z,31.03
2018-06-02T11:05:38.842Z,30.13
2018-06-02T11:08:07.230Z,30.93
2018-06-02T11:10:35.630Z,26.47
2018-06-02T11:13:04.090Z,26.17
2018-06-02T11:15:32.343Z,23.27
2018-06-02T11:18:00.619Z,25.17
2018-06-02T11:20:28.907Z,24.27
2018-06-02T11:22:57.286Z,22.67
2018-06-02T11:25:25.530Z,18.50
2018-06-02T11:27:54.222Z,17.13
2018-06-02T11:30:22.438Z,17.10
2018-06-02T11:32:51.225Z,18.57
2018-06-02T11:35:19.487Z,17.57
2018-06-02T11:37:47.862Z,19.00
2018-06-02T11:40:16.161Z,24.13
2018-06-02T11:42:44.402Z,26.10
2018-06-02T11:45:12.649Z,21.73
2018-06-02T11:47:40.966Z,20.60
2018-06-02T11:50:09.222Z,20.17
2018-06-02T11:52:37.483Z,20.10
2018-06-02T11:55:05.854Z,20.63
2018-06-02T11:57:34.183Z,19.90
2018-06-02T12:00:02.579Z,20.57
2018-06-02T12:02:30.812Z,21.27
2018-06-02T12:04:59.266Z,20.67
2018-06-02T12:07:27.466Z,20.80
2018-06-02T12:09:55.739Z,19.87
2018-06-02T12:12:24.251Z,19.37
2018-06-02T12:14:52.709Z,18.73
2018-06-02T12:17:20.954Z,20.50
2018-06-02T12:19:49.470Z,19.70
2018-06-02T12:22:17.695Z,22.07
2018-06-02T12:24:46.039Z,20.03
2018-06-02T12:27:14.287Z,19.37
2018-06-02T12:29:42.574Z,20.20
2018-06-02T12:32:10.825Z,19.00
2018-06-02T12:34:39.336Z,20.33
2018-06-02T12:37:07.787Z,21.10
2018-06-02T12:39:36.019Z,21.70
2018-06-02T12:42:04.272Z,21.17
2018-06-02T12:44:32.509Z,21.40
2018-06-02T12:47:01.522Z,22.20
2018-06-02T12:49:29.771Z,19.83
2018-06-02T12:51:58.011Z,19.50
2018-06-02T12:54:26.363Z,20.77
2018-06-02T12:56:54.670Z,20.70
2018-06-02T12:59:22.898Z,21.10
2018-06-02T13:01:51.148Z,19.93
2018-06-02T13:04:19.443Z,20.27
2018-06-02T13:06:47.686Z,19.70
2018-06-02T13:09:15.923Z,20.00
2018-06-02T13:11:44.282Z,19.80
2018-06-02T13:14:12.776Z,20.23
2018-06-02T13:16:41.030Z,20.03
2018-06-02T13:19:09.278Z,20.83
2018-06-02T13:21:37.531Z,19.27
2018-06-02T13:24:05.768Z,19.83
2018-06-02T13:26:34.014Z,20.27
2018-06-02T13:29:02.602Z,20.40
2018-06-02T13:31:31.017Z,19.70
2018-06-02T13:33:59.355Z,19.50
2018-06-02T13:36:27.676Z,19.63
2018-06-02T13:38:56.111Z,18.37
2018-06-02T13:41:24.635Z,18.63
2018-06-02T13:43:52.870Z,18.97
2018-06-02T13:46:21.387Z,19.50
2018-06-02T13:48:49.771Z,18.43
2018-06-02T13:51:18.028Z,20.00
2018-06-02T13:53:46.254Z,18.37
2018-06-02T13:56:14.514Z,18.40
2018-06-02T13:58:43.140Z,18.67
2018-06-02T14:01:11.689Z,18.77
2018-06-02T14:03:40.039Z,18.27
2018-06-02T14:06:08.266Z,17.13
2018-06-02T14:08:36.523Z,17.83
2018-06-02T14:11:04.750Z,17.80
2018-06-02T14:13:33.165Z,17.83
2018-06-02T14:16:01.403Z,17.47
2018-06-02T14:18:29.674Z,16.40
2018-06-02T14:20:57.951Z,17.83
2018-06-02T14:23:26.446Z,17.20
2018-06-02T14:25:54.695Z,17.47
2018-06-02T14:28:23.104Z,15.70
2018-06-02T14:30:51.390Z,16.53
2018-06-02T14:33:19.967Z,16.90
2018-06-02T14:35:48.194Z,16.47
2018-06-02T14:38:16.464Z,17.60
2018-06-02T14:40:44.696Z,15.87
2018-06-02T14:43:13.166Z,16.97
2018-06-02T14:45:41.404Z,16.53
2018-06-02T14:48:09.891Z,17.20
2018-06-02T14:50:38.311Z,16.13
2018-06-02T14:53:06.585Z,15.93
2018-06-02T14:55:35.067Z,16.53
2018-06-02T14:58:03.314Z,15.33
2018-06-02T15:00:31.686Z,16.67
2018-06-02T15:03:00.128Z,16.00
2018-06-02T15:05:28.356Z,16.10
2018-06-02T15:07:56.618Z,16.10
2018-06-02T15:10:24.895Z,15.23
2018-06-02T15:12:53.146Z,14.90
2018-06-02T15:15:21.474Z,15.70
2018-06-02T15:17:49.752Z,15.87
2018-06-02T15:20:17.962Z,15.47
2018-06-02T15:22:46.312Z,15.93
2018-06-02T15:25:14.546Z,15.80
2018-06-02T15:27:42.954Z,14.67
2018-06-02T15:30:11.350Z,14.27
2018-06-02T15:33:26.750Z,14.30
2018-06-02T15:35:55.622Z,14.60
2018-06-02T15:38:24.511Z,14.20
2018-06-02T15:40:53.383Z,15.20
2018-06-02T15:43:22.275Z,14.67
2018-06-02T15:45:51.141Z,13.67
2018-06-02T15:48:20.096Z,14.40
2018-06-02T15:50:48.895Z,14.77
2018-06-02T15:53:17.786Z,15.43
2018-06-02T15:55:46.650Z,16.60
2018-06-02T15:58:15.545Z,16.07
2018-06-02T16:00:44.402Z,17.67
2018-06-02T16:03:13.287Z,18.10
2018-06-02T16:05:42.170Z,18.60
2018-06-02T16:08:10.845Z,16.10
2018-06-02T16:10:39.588Z,18.47
2018-06-02T16:13:08.483Z,16.67
2018-06-02T16:15:37.354Z,18.27
2018-06-02T16:18:06.243Z,16.33
2018-06-02T16:20:35.126Z,17.83
2018-06-02T16:23:04.015Z,17.67
2018-06-02T16:25:32.885Z,16.97
2018-06-02T16:28:01.630Z,16.53
2018-06-02T16:30:30.374Z,17.27
2018-06-02T16:32:59.270Z,17.47
2018-06-02T16:35:28.130Z,16.33
2018-06-02T16:37:57.035Z,15.87
2018-06-02T16:40:25.903Z,16.03
2018-06-02T16:42:54.844Z,14.97
2018-06-02T16:45:23.731Z,14.73
2018-06-02T16:47:52.602Z,14.73
2018-06-02T16:50:21.795Z,14.83
2018-06-02T16:52:50.667Z,14.77
2018-06-02T16:55:19.559Z,14.50
2018-06-02T16:57:48.418Z,14.70
2018-06-02T17:00:17.310Z,13.87
2018-06-02T17:02:46.171Z,14.90
2018-06-02T17:05:15.971Z,14.63
2018-06-02T17:07:44.842Z,13.87
2018-06-02T17:10:14.075Z,13.13
2018-06-02T17:12:42.819Z,14.63
2018-06-02T17:15:11.706Z,14.30
2018-06-02T17:17:40.579Z,14.23
2018-06-02T17:20:09.535Z,13.77
2018-06-02T17:22:38.339Z,14.40
2018-06-02T17:25:07.235Z,13.17
2018-06-02T17:27:36.095Z,13.53
2018-06-02T17:30:05.911Z,13.90
2018-06-02T17:32:34.779Z,12.40
2018-06-02T17:35:03.461Z,13.00
2018-06-02T17:37:32.202Z,12.63
2018-06-02T17:40:01.095Z,13.33
2018-06-02T17:42:29.959Z,13.07
2018-06-02T17:44:58.852Z,13.33
2018-06-02T17:47:28.639Z,14.13
2018-06-02T17:49:57.523Z,13.50
2018-06-02T17:52:26.399Z,12.70
2018-06-02T17:54:55.291Z,12.17
2018-06-02T17:57:24.163Z,12.70
2018-06-02T17:59:53.514Z,12.70
2018-06-02T18:02:22.607Z,13.07
2018-06-02T18:04:51.518Z,12.63
2018-06-02T18:07:20.869Z,11.90
2018-06-02T18:09:51.527Z,12.60
2018-06-02T18:12:20.405Z,12.43
2018-06-02T18:14:49.258Z,13.00
2018-06-02T18:17:18.118Z,12.10
2018-06-02T18:19:48.951Z,12.07
2018-06-02T18:22:17.891Z,11.87
2018-06-02T18:24:46.798Z,12.67
2018-06-02T18:27:15.667Z,11.90
2018-06-02T18:29:44.566Z,11.83
2018-06-02T18:32:13.435Z,12.77
2018-06-02T18:34:42.323Z,12.20
2018-06-02T18:37:11.246Z,11.63
2018-06-02T18:39:44.999Z,11.87
2018-06-02T18:42:14.287Z,12.00
2018-06-02T18:44:43.179Z,11.67
2018-06-02T18:47:12.079Z,11.73
2018-06-02T18:49:40.967Z,11.33
2018-06-02T18:52:09.835Z,11.80
2018-06-02T18:54:38.730Z,10.60
2018-06-02T18:57:07.607Z,11.33
2018-06-02T18:59:36.336Z,12.50
2018-06-02T19:02:05.095Z,11.23
2018-06-02T19:04:34.015Z,12.00
2018-06-02T19:07:02.905Z,11.10
2018-06-02T19:09:32.666Z,11.77
2018-06-02T19:12:01.567Z,10.93
2018-06-02T19:14:30.484Z,11.43
2018-06-02T19:16:59.398Z,11.53
2018-06-02T19:19:28.266Z,11.30
2018-06-02T19:21:57.182Z,11.47
2018-06-02T19:24:26.221Z,11.03
2018-06-02T19:26:55.449Z,11.07
2018-06-02T19:29:24.368Z,11.10
2018-06-02T19:31:53.283Z,10.73
2018-06-02T19:34:22.166Z,11.30
2018-06-02T19:36:51.075Z,11.13
2018-06-02T19:39:20.195Z,11.67
2018-06-02T19:41:49.114Z,10.73
2018-06-02T19:44:17.983Z,11.43
2018-06-02T19:46:46.891Z,10.47
2018-06-02T19:49:15.761Z,10.80
2018-06-02T19:51:44.654Z,10.73
2018-06-02T19:54:13.522Z,10.97
2018-06-02T19:56:42.769Z,10.10
2018-06-02T19:59:11.523Z,10.17
2018-06-02T20:01:40.410Z,10.77
2018-06-02T20:04:09.314Z,10.57
2018-06-02T20:06:38.170Z,10.37
2018-06-02T20:09:06.894Z,11.70
2018-06-02T20:11:35.672Z,10.60
2018-06-02T20:14:04.546Z,11.17
2018-06-02T20:16:33.445Z,11.17
2018-06-02T20:19:02.313Z,11.00
2018-06-02T20:21:31.195Z,11.20
2018-06-02T20:23:59.845Z,10.93
2018-06-02T20:26:28.615Z,10.50
2018-06-02T20:28:57.481Z,11.33
2018-06-02T20:31:26.371Z,10.80
2018-06-02T20:33:55.243Z,10.40
2018-06-02T20:36:23.990Z,10.47
2018-06-02T20:38:52.735Z,10.47
2018-06-02T20:41:21.631Z,10.90
2018-06-02T20:43:50.494Z,10.53
2018-06-02T20:46:19.396Z,11.10
2018-06-02T20:48:48.310Z,9.70
2018-06-02T20:51:17.190Z,9.93
2018-06-02T20:53:47.257Z,10.17
2018-06-02T20:56:16.239Z,10.10
2018-06-02T20:58:45.106Z,10.80
2018-06-02T21:01:14.019Z,10.30
2018-06-02T21:03:42.878Z,10.70
2018-06-02T21:06:11.790Z,11.20
2018-06-02T21:08:40.663Z,9.57
2018-06-02T21:11:09.551Z,10.27
2018-06-02T21:13:38.410Z,9.97
2018-06-02T21:16:07.303Z,10.10
2018-06-02T21:18:36.166Z,10.60
2018-06-02T21:21:05.055Z,9.83
2018-06-02T21:23:33.920Z,10.37
2018-06-02T21:26:02.778Z,10.97
2018-06-02T21:28:31.666Z,10.60
2018-06-02T21:31:00.530Z,9.97
2018-06-02T21:33:29.413Z,9.97
2018-06-02T21:35:58.279Z,9.87
2018-06-02T21:38:27.162Z,9.43
2018-06-02T21:40:56.030Z,9.73
2018-06-02T21:43:24.919Z,9.93
2018-06-02T21:45:53.783Z,10.50
2018-06-02T21:48:22.695Z,10.10
2018-06-02T21:50:51.563Z,10.13
2018-06-02T21:53:20.313Z,9.73
2018-06-02T21:55:49.058Z,10.20
2018-06-02T21:58:17.950Z,10.00
2018-06-02T22:00:46.810Z,9.27
2018-06-02T22:03:15.723Z,9.97
2018-06-02T22:05:44.603Z,9.77
2018-06-02T22:08:13.285Z,9.83
2018-06-02T22:10:42.022Z,9.33
2018-06-02T22:13:10.898Z,10.00
2018-06-02T22:15:39.770Z,10.37
2018-06-02T22:18:08.667Z,10.40
2018-06-02T22:20:37.546Z,9.50
2018-06-02T22:23:06.427Z,9.53
2018-06-02T22:25:35.296Z,9.57
2018-06-02T22:28:04.319Z,10.00
2018-06-02T22:30:32.970Z,9.63
2018-06-02T22:33:01.726Z,9.40
2018-06-02T22:35:30.584Z,9.53
2018-06-02T22:37:59.470Z,9.60
2018-06-02T22:40:28.339Z,9.90
2018-06-02T22:42:57.244Z,9.67
2018-06-02T22:45:26.083Z,9.13
2018-06-02T22:47:54.970Z,9.43
2018-06-02T22:50:23.883Z,9.70
2018-06-02T22:52:52.799Z,9.53
2018-06-02T22:55:21.667Z,9.80
2018-06-02T22:57:50.555Z,9.50
2018-06-02T23:00:20.015Z,9.17
2018-06-02T23:02:48.658Z,9.67
2018-06-02T23:05:17.302Z,8.73
2018-06-02T23:07:46.135Z,10.30
2018-06-02T23:10:14.835Z,10.17
2018-06-02T23:12:43.488Z,9.13
2018-06-02T23:15:12.115Z,10.20
2018-06-02T23:17:40.763Z,9.40
2018-06-02T23:20:09.382Z,9.50
2018-06-02T23:22:40.166Z,10.07
2018-06-02T23:25:08.803Z,9.10
2018-06-02T23:27:37.432Z,8.93
2018-06-02T23:30:06.079Z,9.50
2018-06-02T23:32:34.707Z,10.03
2018-06-02T23:35:03.351Z,9.13
2018-06-02T23:37:31.978Z,8.87
2018-06-02T23:40:00.632Z,9.77
2018-06-02T23:42:29.255Z,9.30
2018-06-02T23:44:57.902Z,9.87
2018-06-02T23:47:26.529Z,8.83
2018-06-02T23:49:55.175Z,8.50
2018-06-02T23:52:23.662Z,9.07
2018-06-02T23:54:52.203Z,9.47
2018-06-02T23:57:20.827Z,9.37
2018-06-02T23:59:49.470Z,9.40
